Time;durP1;ratioP1;P1;durP2;ratioP2;P2;SDS_P1;SDS_P2;PMS_P1;PMS_P2;Temp;Humidity;BMP_temperature;BMP_pressure;BME280_temperature;BME280_humidity;BME280_pressure;Samples;Min_cycle;Max_cycle;Signal;HPM_P1;HPM_P2
2022/06/28 00:00:07;;;;;;;1.95;1.00;;;21.90;99.90;;;;;;5034567;28;20029;-89
2022/06/28 00:02:32;;;;;;;4.78;0.82;;;21.90;99.90;;;;;;5036336;28;20070;-89
2022/06/28 00:04:58;;;;;;;3.38;0.90;;;21.90;99.90;;;;;;5034347;28;20116;-89
2022/06/28 00:07:24;;;;;;;2.20;0.85;;;21.90;99.90;;;;;;5034126;28;20022;-89
2022/06/28 00:09:49;;;;;;;1.38;0.80;;;21.90;99.90;;;;;;5034331;28;20496;-89
2022/06/28 00:12:15;;;;;;;2.35;0.95;;;21.90;99.90;;;;;;5035221;28;20017;-89
2022/06/28 00:17:26;;;;;;;1.83;0.98;;;21.90;99.90;;;;;;5035934;28;20110;-89
2022/06/28 00:19:52;;;;;;;2.25;1.33;;;21.90;99.90;;;;;;5033935;28;20056;-89
2022/06/28 00:22:17;;;;;;;6.85;1.13;;;21.90;99.90;;;;;;5034279;28;20122;-90
2022/06/28 00:24:43;;;;;;;1.45;0.73;;;21.90;99.90;;;;;;5034122;28;20029;-89
2022/06/28 00:27:09;;;;;;;1.35;0.60;;;21.90;99.90;;;;;;5034408;28;20168;-89
2022/06/28 00:29:35;;;;;;;1.30;0.90;;;21.90;99.90;;;;;;5033730;28;20078;-89
2022/06/28 00:32:00;;;;;;;1.20;0.82;;;21.90;99.90;;;;;;5033716;28;20022;-89
2022/06/28 00:34:26;;;;;;;1.30;0.80;;;21.80;99.90;;;;;;5033872;28;20088;-89
2022/06/28 00:36:52;;;;;;;4.30;0.80;;;21.80;99.90;;;;;;5050310;28;20029;-89
2022/06/28 00:39:18;;;;;;;3.08;0.80;;;21.80;99.90;;;;;;5034251;28;20024;-89
2022/06/28 00:41:44;;;;;;;1.48;0.80;;;21.80;99.90;;;;;;5034599;28;20026;-90
2022/06/28 00:44:11;;;;;;;2.92;1.00;;;21.80;99.90;;;;;;5033767;28;20048;-90
2022/06/28 00:46:37;;;;;;;1.58;1.10;;;21.80;99.90;;;;;;5033711;28;20087;-89
2022/06/28 00:49:04;;;;;;;1.02;0.75;;;21.80;99.90;;;;;;5033787;28;20022;-89
2022/06/28 00:51:30;;;;;;;4.68;1.00;;;21.80;99.90;;;;;;5033592;28;20551;-89
2022/06/28 00:53:56;;;;;;;1.27;0.80;;;21.80;99.90;;;;;;5033605;28;20021;-89
2022/06/28 00:56:23;;;;;;;3.08;1.00;;;21.80;99.90;;;;;;5032901;28;20036;-89
2022/06/28 00:58:49;;;;;;;1.38;0.98;;;21.80;99.90;;;;;;5033156;28;20033;-89
2022/06/28 01:01:15;;;;;;;1.75;0.98;;;21.80;99.90;;;;;;5033107;28;20022;-88
2022/06/28 01:03:41;;;;;;;1.58;0.65;;;21.80;99.90;;;;;;5033252;28;20029;-89
2022/06/28 01:06:07;;;;;;;2.78;0.90;;;21.70;99.90;;;;;;5033181;28;20030;-89
2022/06/28 01:08:33;;;;;;;2.92;1.00;;;21.80;99.90;;;;;;5033271;28;20385;-90
2022/06/28 01:11:18;;;;;;;1.85;1.00;;;21.70;99.90;;;;;;5033254;28;20461;-89
2022/06/28 01:13:52;;;;;;;1.85;0.80;;;21.70;99.90;;;;;;5033246;28;20049;-89
2022/06/28 01:16:19;;;;;;;2.67;0.90;;;21.70;99.90;;;;;;5033200;28;20113;-89
2022/06/28 01:18:45;;;;;;;3.10;0.98;;;21.70;99.90;;;;;;5033113;28;20124;-89
2022/06/28 01:21:15;;;;;;;4.03;0.95;;;21.70;99.90;;;;;;5032608;28;20108;-88
2022/06/28 01:23:46;;;;;;;1.63;0.80;;;21.70;99.90;;;;;;5032832;28;20028;-89
2022/06/28 01:26:15;;;;;;;1.50;0.70;;;21.70;99.90;;;;;;5033023;28;20030;-89
2022/06/28 01:28:42;;;;;;;2.92;1.00;;;21.70;99.90;;;;;;5032729;28;20021;-89
2022/06/28 01:31:08;;;;;;;2.58;0.80;;;21.70;99.90;;;;;;5032977;28;20392;-90
2022/06/28 01:33:37;;;;;;;3.58;1.05;;;21.70;99.90;;;;;;5032708;28;20393;-90
2022/06/28 01:36:07;;;;;;;1.75;0.88;;;21.60;99.90;;;;;;5032851;28;20054;-90
2022/06/28 01:38:34;;;;;;;2.67;0.88;;;21.70;99.90;;;;;;5033672;28;20032;-89
2022/06/28 01:41:01;;;;;;;1.23;0.90;;;21.60;99.90;;;;;;5032351;28;20029;-89
2022/06/28 01:43:29;;;;;;;2.10;0.90;;;21.60;99.90;;;;;;5032428;28;20034;-89
2022/06/28 01:45:56;;;;;;;3.33;1.00;;;21.60;99.90;;;;;;5033891;28;20029;-89
2022/06/28 01:48:22;;;;;;;1.83;0.90;;;21.60;99.90;;;;;;5031911;28;20552;-89
2022/06/28 01:50:49;;;;;;;4.05;1.10;;;21.60;99.90;;;;;;5032386;28;20057;-89
2022/06/28 01:53:15;;;;;;;3.25;0.85;;;21.60;99.90;;;;;;5032493;28;20034;-89
2022/06/28 01:55:42;;;;;;;2.42;0.77;;;21.60;99.90;;;;;;5032541;28;20028;-89
2022/06/28 01:58:08;;;;;;;3.67;0.90;;;21.60;99.90;;;;;;5032343;28;20029;-89
2022/06/28 02:00:34;;;;;;;3.10;0.90;;;21.60;99.90;;;;;;5032273;28;20436;-89
2022/06/28 02:03:00;;;;;;;3.42;0.93;;;21.60;99.90;;;;;;5032571;28;20025;-89
2022/06/28 02:05:27;;;;;;;2.53;0.88;;;21.60;99.90;;;;;;5032657;28;20540;-89
2022/06/28 02:07:54;;;;;;;1.60;0.90;;;21.60;99.90;;;;;;5032585;28;20031;-89
2022/06/28 02:10:21;;;;;;;2.13;0.80;;;21.50;99.90;;;;;;5032285;28;20018;-89
2022/06/28 02:12:46;;;;;;;3.80;1.10;;;21.50;99.90;;;;;;5032250;28;20025;-89
2022/06/28 02:15:13;;;;;;;3.45;0.75;;;21.50;99.90;;;;;;5032231;28;20384;-89
2022/06/28 02:17:40;;;;;;;4.50;1.13;;;21.50;99.90;;;;;;5032269;28;20049;-89
2022/06/28 02:20:07;;;;;;;1.67;0.90;;;21.50;99.90;;;;;;5032159;28;20034;-89
2022/06/28 02:22:32;;;;;;;4.57;1.08;;;21.50;99.90;;;;;;5032181;28;20059;-89
2022/06/28 02:24:58;;;;;;;3.72;1.00;;;21.50;99.90;;;;;;5031979;28;20087;-89
2022/06/28 02:27:24;;;;;;;2.78;0.95;;;21.50;99.90;;;;;;5031993;28;20022;-89
2022/06/28 02:29:50;;;;;;;1.40;0.88;;;21.50;99.90;;;;;;5032138;28;20021;-89
2022/06/28 02:32:15;;;;;;;2.55;0.80;;;21.50;99.90;;;;;;5032008;28;20071;-89
2022/06/28 02:40:22;;;;;;;5.43;1.10;;;21.40;99.90;;;;;;5033527;28;20036;-89
2022/06/28 02:43:00;;;;;;;5.30;0.98;;;21.40;99.90;;;;;;5031848;28;20032;-89
2022/06/28 02:45:28;;;;;;;3.13;0.98;;;21.40;99.90;;;;;;5031900;28;20061;-88
2022/06/28 02:47:54;;;;;;;4.55;1.23;;;21.40;99.90;;;;;;5032227;28;20025;-89
2022/06/28 02:50:21;;;;;;;1.85;1.00;;;21.40;99.90;;;;;;5031804;28;20028;-88
2022/06/28 02:52:46;;;;;;;2.67;1.05;;;21.40;99.90;;;;;;5031754;28;20036;-89
2022/06/28 02:55:13;;;;;;;7.93;1.10;;;21.40;99.90;;;;;;5031715;28;20392;-88
2022/06/28 02:57:40;;;;;;;2.92;1.10;;;21.40;99.90;;;;;;5033022;28;20112;-89
2022/06/28 03:00:15;;;;;;;4.68;1.05;;;21.40;99.90;;;;;;5033022;28;20026;-89
2022/06/28 03:02:42;;;;;;;6.05;1.00;;;21.40;99.90;;;;;;5035461;28;20397;-88
2022/06/28 03:05:10;;;;;;;5.50;0.93;;;21.40;99.90;;;;;;5035733;28;20026;-89
2022/06/28 03:07:36;;;;;;;2.67;0.95;;;21.40;99.90;;;;;;5035252;28;20137;-88
2022/06/28 03:10:04;;;;;;;5.07;1.20;;;21.40;99.90;;;;;;5035500;28;20022;-88
2022/06/28 03:12:30;;;;;;;4.28;0.98;;;21.30;99.90;;;;;;5035162;28;20071;-88
2022/06/28 03:14:55;;;;;;;2.70;1.00;;;21.30;99.90;;;;;;5035096;28;20489;-89
2022/06/28 03:17:21;;;;;;;2.63;0.90;;;21.30;99.90;;;;;;5034883;28;20025;-88
2022/06/28 03:19:47;;;;;;;2.40;0.98;;;21.30;99.90;;;;;;5036339;28;20033;-88
2022/06/28 03:22:13;;;;;;;6.03;1.00;;;21.30;99.90;;;;;;5034784;28;20029;-88
2022/06/28 03:24:38;;;;;;;3.30;0.93;;;21.30;99.90;;;;;;5034824;28;20127;-88
2022/06/28 03:27:04;;;;;;;2.22;1.00;;;21.30;99.90;;;;;;5034674;28;20056;-88
2022/06/28 03:29:30;;;;;;;3.88;1.10;;;21.30;99.90;;;;;;5035364;28;20452;-88
2022/06/28 03:31:56;;;;;;;4.47;1.05;;;21.30;99.90;;;;;;5034972;28;20070;-88
2022/06/28 03:34:21;;;;;;;2.22;0.77;;;21.30;99.90;;;;;;5034491;28;20021;-88
2022/06/28 03:36:47;;;;;;;4.20;1.17;;;21.30;99.90;;;;;;5034580;28;20046;-88
2022/06/28 03:39:13;;;;;;;4.68;1.05;;;21.30;99.90;;;;;;5034572;28;20021;-89
2022/06/28 03:41:39;;;;;;;4.38;1.05;;;21.30;99.90;;;;;;5034541;28;20064;-88
2022/06/28 03:44:05;;;;;;;1.98;1.00;;;21.30;99.90;;;;;;5034510;28;20457;-89
2022/06/28 03:46:31;;;;;;;2.35;0.85;;;21.30;99.90;;;;;;5034394;28;20485;-88
2022/06/28 03:48:57;;;;;;;3.65;1.00;;;21.20;99.90;;;;;;5034361;28;20071;-88
2022/06/28 03:51:23;;;;;;;3.28;0.95;;;21.20;99.90;;;;;;5034466;28;20113;-88
2022/06/28 03:53:49;;;;;;;7.53;1.02;;;21.20;99.90;;;;;;5034225;28;20028;-88
2022/06/28 03:56:15;;;;;;;1.23;0.95;;;21.20;99.90;;;;;;5034211;28;20029;-88
2022/06/28 03:58:41;;;;;;;4.03;0.85;;;21.20;99.90;;;;;;5034309;28;20057;-88
2022/06/28 04:01:06;;;;;;;4.63;1.08;;;21.20;99.90;;;;;;5034185;28;20555;-88
2022/06/28 04:03:34;;;;;;;1.60;0.80;;;21.20;99.90;;;;;;5033873;28;20029;-88
2022/06/28 04:05:59;;;;;;;9.20;1.45;;;21.20;99.90;;;;;;5033882;28;20021;-88
2022/06/28 04:08:25;;;;;;;4.30;0.95;;;21.20;99.90;;;;;;5034087;28;20021;-89
2022/06/28 04:11:13;;;;;;;2.63;1.10;;;21.20;99.90;;;;;;5033813;28;20018;-88
2022/06/28 04:13:38;;;;;;;2.08;0.95;;;21.20;99.90;;;;;;5035039;28;20370;-89
2022/06/28 04:16:04;;;;;;;2.47;0.93;;;21.20;99.90;;;;;;5034433;28;20032;-88
2022/06/28 04:18:30;;;;;;;2.00;0.85;;;21.20;99.90;;;;;;5033816;28;20079;-88
2022/06/28 04:20:56;;;;;;;1.92;1.25;;;21.20;99.90;;;;;;5033911;28;20033;-89
2022/06/28 04:23:22;;;;;;;3.47;1.00;;;21.20;99.90;;;;;;5033967;28;20504;-88
2022/06/28 04:25:47;;;;;;;5.80;0.98;;;21.20;99.90;;;;;;5033521;28;20120;-88
2022/06/28 04:28:13;;;;;;;2.40;0.98;;;21.20;99.90;;;;;;5033742;28;20017;-88
2022/06/28 04:30:39;;;;;;;3.50;1.00;;;21.20;99.90;;;;;;5033539;28;20022;-88
2022/06/28 04:33:04;;;;;;;3.92;1.00;;;21.10;99.90;;;;;;5033412;28;20025;-88
2022/06/28 04:35:30;;;;;;;4.97;0.82;;;21.10;99.90;;;;;;5033391;28;20554;-89
2022/06/28 04:37:56;;;;;;;1.40;0.70;;;21.10;99.90;;;;;;5033432;28;20370;-89
2022/06/28 04:40:22;;;;;;;2.75;0.88;;;21.10;99.90;;;;;;5034608;28;20026;-88
2022/06/28 04:42:47;;;;;;;5.72;0.90;;;21.20;99.90;;;;;;5033247;28;20033;-88
2022/06/28 04:45:13;;;;;;;2.60;0.90;;;21.10;99.90;;;;;;5033313;28;20022;-87
2022/06/28 04:47:39;;;;;;;2.10;0.95;;;21.10;99.90;;;;;;5034866;28;20018;-88
2022/06/28 04:50:05;;;;;;;0.70;0.70;;;21.20;99.90;;;;;;5033498;28;20483;-88
2022/06/28 04:52:31;;;;;;;3.08;0.90;;;21.20;99.90;;;;;;5033397;28;20026;-88
2022/06/28 04:54:57;;;;;;;3.67;1.00;;;21.10;99.90;;;;;;5033346;28;20025;-88
2022/06/28 04:57:22;;;;;;;2.38;0.90;;;21.20;99.90;;;;;;5033468;28;20391;-88
2022/06/28 04:59:48;;;;;;;4.63;0.80;;;21.10;99.90;;;;;;5033229;28;20116;-88
2022/06/28 05:02:14;;;;;;;2.28;0.90;;;21.10;99.90;;;;;;5033251;28;20049;-89
2022/06/28 05:04:39;;;;;;;3.35;0.77;;;21.10;99.90;;;;;;5032850;28;20481;-88
2022/06/28 05:07:05;;;;;;;2.00;0.80;;;21.20;99.90;;;;;;5032858;28;20033;-89
2022/06/28 05:09:31;;;;;;;5.30;1.00;;;21.20;99.90;;;;;;5033124;28;20108;-89
2022/06/28 05:11:56;;;;;;;4.47;0.98;;;21.10;99.90;;;;;;5032908;28;20021;-89
2022/06/28 05:14:22;;;;;;;1.67;0.82;;;21.10;99.90;;;;;;5032961;28;20477;-89
2022/06/28 05:16:48;;;;;;;3.88;0.90;;;21.10;99.90;;;;;;5033004;28;20116;-89
2022/06/28 05:19:13;;;;;;;2.90;0.73;;;21.20;99.90;;;;;;5032763;28;20025;-89
2022/06/28 05:21:39;;;;;;;1.88;0.80;;;21.20;99.90;;;;;;5032698;28;20079;-89
2022/06/28 05:24:05;;;;;;;5.55;1.10;;;21.20;99.90;;;;;;5032677;28;20025;-89
2022/06/28 05:26:31;;;;;;;2.30;1.00;;;21.20;99.90;;;;;;5032800;28;20440;-89
2022/06/28 05:28:57;;;;;;;2.53;0.80;;;21.20;99.90;;;;;;5032685;28;20021;-89
2022/06/28 05:31:22;;;;;;;3.30;0.93;;;21.20;99.90;;;;;;5032502;28;20029;-89
2022/06/28 05:33:48;;;;;;;2.05;0.88;;;21.20;99.90;;;;;;5032742;28;20383;-88
2022/06/28 05:36:14;;;;;;;3.00;1.00;;;21.30;99.90;;;;;;5032326;28;20049;-89
2022/06/28 05:38:40;;;;;;;4.03;0.80;;;21.20;99.90;;;;;;5032633;28;20116;-89
2022/06/28 05:41:05;;;;;;;3.38;0.80;;;21.30;99.90;;;;;;5032408;28;20033;-89
2022/06/28 05:43:31;;;;;;;3.63;1.20;;;21.30;99.90;;;;;;5032490;28;20029;-89
2022/06/28 05:45:57;;;;;;;2.13;1.00;;;21.30;99.90;;;;;;5032332;28;20029;-89
2022/06/28 05:48:22;;;;;;;1.75;0.80;;;21.30;99.90;;;;;;5032584;28;20030;-89
2022/06/28 05:50:48;;;;;;;2.13;1.00;;;21.30;99.90;;;;;;5032563;28;20022;-88
2022/06/28 05:53:14;;;;;;;3.83;0.80;;;21.40;99.90;;;;;;5032305;28;20028;-89
2022/06/28 05:55:40;;;;;;;2.58;0.98;;;21.30;99.90;;;;;;5032415;28;20079;-89
2022/06/28 05:58:05;;;;;;;2.65;1.10;;;21.40;99.90;;;;;;5032204;28;20029;-89
2022/06/28 06:00:33;;;;;;;2.58;0.95;;;21.30;99.90;;;;;;5032253;28;20029;-89
2022/06/28 06:03:00;;;;;;;3.67;1.10;;;21.30;99.90;;;;;;5032385;28;20048;-89
2022/06/28 06:05:25;;;;;;;2.50;1.20;;;21.30;99.90;;;;;;5032097;28;20022;-89
2022/06/28 06:07:51;;;;;;;5.15;1.30;;;21.40;99.90;;;;;;5032220;28;20029;-89
2022/06/28 06:10:17;;;;;;;3.35;1.08;;;21.40;99.90;;;;;;5049057;28;20034;-89
2022/06/28 06:12:43;;;;;;;1.70;1.30;;;21.40;99.90;;;;;;5032284;28;20095;-90
2022/06/28 06:15:09;;;;;;;3.20;1.27;;;21.40;99.90;;;;;;5032329;28;20033;-89
2022/06/28 06:17:35;;;;;;;1.50;1.30;;;21.30;99.90;;;;;;5032855;28;20029;-89
2022/06/28 06:20:02;;;;;;;1.85;1.40;;;21.40;99.90;;;;;;5032232;28;20029;-90
2022/06/28 06:22:28;;;;;;;3.78;1.42;;;21.30;99.90;;;;;;5032165;28;20021;-89
2022/06/28 06:24:54;;;;;;;3.17;1.60;;;21.30;99.90;;;;;;5032006;28;20030;-88
2022/06/28 06:27:20;;;;;;;3.10;1.65;;;21.40;99.90;;;;;;5032301;28;20033;-89
2022/06/28 06:29:46;;;;;;;2.40;1.52;;;21.30;99.90;;;;;;5032126;28;20025;-88
2022/06/28 06:32:11;;;;;;;5.05;1.38;;;21.30;99.90;;;;;;5031852;28;20469;-88
2022/06/28 06:34:37;;;;;;;6.53;1.70;;;21.30;99.90;;;;;;5032246;28;20028;-89
2022/06/28 06:37:03;;;;;;;2.42;1.65;;;21.30;99.90;;;;;;5035814;28;20018;-89
2022/06/28 06:39:29;;;;;;;2.97;1.70;;;21.30;99.90;;;;;;5035784;28;20477;-89
2022/06/28 06:41:55;;;;;;;2.13;1.70;;;21.30;99.90;;;;;;5035700;28;20028;-89
2022/06/28 06:44:21;;;;;;;3.20;1.75;;;21.30;99.90;;;;;;5036042;28;20548;-89
2022/06/28 06:46:46;;;;;;;5.60;1.90;;;21.20;99.90;;;;;;5035607;28;20025;-88
2022/06/28 06:49:17;;;;;;;3.65;1.70;;;21.20;99.90;;;;;;5036675;28;20026;-88
2022/06/28 06:51:48;;;;;;;3.80;1.92;;;21.20;99.90;;;;;;5035458;28;20469;-89
2022/06/28 06:54:14;;;;;;;1.80;1.63;;;21.20;99.90;;;;;;5035527;28;20496;-89
2022/06/28 06:56:41;;;;;;;6.47;1.98;;;21.10;99.90;;;;;;5036701;28;20465;-89
2022/06/28 06:59:07;;;;;;;1.83;1.67;;;21.20;99.90;;;;;;5035373;28;20025;-89
2022/06/28 07:01:36;;;;;;;3.03;2.00;;;21.10;99.90;;;;;;5035794;28;20110;-90
2022/06/28 07:04:02;;;;;;;2.05;1.85;;;21.10;99.90;;;;;;5035362;28;20025;-89
2022/06/28 07:06:28;;;;;;;4.53;2.13;;;21.10;99.90;;;;;;5035709;28;20547;-89
2022/06/28 07:08:53;;;;;;;2.63;2.30;;;21.10;99.90;;;;;;5035742;28;20026;-89
2022/06/28 07:11:19;;;;;;;3.33;2.25;;;21.10;99.90;;;;;;5035510;28;20021;-89
2022/06/28 07:13:45;;;;;;;3.70;2.50;;;21.10;99.90;;;;;;5035534;28;20033;-90
2022/06/28 07:16:10;;;;;;;4.00;2.50;;;21.10;99.90;;;;;;5035441;28;20037;-89
2022/06/28 07:18:36;;;;;;;2.92;2.50;;;21.00;99.90;;;;;;5035201;28;20393;-90
2022/06/28 07:21:02;;;;;;;5.28;2.58;;;21.10;99.90;;;;;;5035710;28;20530;-89
2022/06/28 07:23:28;;;;;;;3.00;2.60;;;21.10;99.90;;;;;;5035116;28;20029;-90
2022/06/28 07:25:54;;;;;;;2.67;2.00;;;21.10;99.90;;;;;;5035569;28;20033;-90
2022/06/28 07:28:21;;;;;;;3.38;2.28;;;21.10;99.90;;;;;;5035179;28;20040;-90
2022/06/28 07:30:47;;;;;;;3.95;2.80;;;21.10;99.90;;;;;;5036935;28;20130;-91
2022/06/28 07:33:13;;;;;;;4.10;2.10;;;21.10;99.90;;;;;;5034869;28;20366;-89
2022/06/28 07:35:39;;;;;;;3.50;2.05;;;21.20;99.90;;;;;;5034688;28;20060;-90
2022/06/28 07:38:05;;;;;;;3.95;2.03;;;21.20;99.90;;;;;;5035387;28;20469;-89
2022/06/28 07:40:30;;;;;;;3.85;2.17;;;21.30;99.90;;;;;;5034664;28;20087;-90
2022/06/28 07:42:56;;;;;;;2.60;1.98;;;21.20;99.90;;;;;;5035419;28;20120;-89
2022/06/28 07:45:22;;;;;;;2.30;2.10;;;21.30;99.90;;;;;;5034786;28;20029;-89
2022/06/28 07:47:48;;;;;;;2.85;2.30;;;21.30;99.90;;;;;;5034922;28;20036;-89
2022/06/28 07:53:02;;;;;;;2.60;2.13;;;21.30;99.90;;;;;;5036547;28;20060;-89
2022/06/28 07:55:28;;;;;;;4.15;2.50;;;21.30;99.90;;;;;;5034413;28;20120;-88
2022/06/28 07:57:53;;;;;;;2.30;2.05;;;21.40;99.90;;;;;;5034324;28;20053;-88
2022/06/28 08:00:21;;;;;;;2.13;1.92;;;21.40;99.90;;;;;;5034398;28;20393;-88
2022/06/28 08:02:50;;;;;;;4.80;2.33;;;21.40;99.90;;;;;;5035339;28;20432;-88
2022/06/28 08:05:16;;;;;;;2.65;2.30;;;21.40;99.90;;;;;;5034188;28;20397;-88
2022/06/28 08:07:42;;;;;;;3.88;2.50;;;21.40;99.90;;;;;;5034205;28;20025;-88
2022/06/28 08:10:09;;;;;;;3.17;2.40;;;21.40;99.90;;;;;;5034074;28;20029;-88
2022/06/28 08:12:35;;;;;;;3.35;2.40;;;21.40;99.90;;;;;;5033908;28;20032;-88
2022/06/28 08:15:01;;;;;;;3.65;2.42;;;21.40;99.90;;;;;;5034438;28;20029;-89
2022/06/28 08:17:28;;;;;;;3.83;2.85;;;20.80;99.90;;;;;;5035945;28;20044;-88
2022/06/28 08:19:53;;;;;;;4.55;3.08;;;20.50;99.90;;;;;;5035184;28;20026;-88
2022/06/28 08:22:19;;;;;;;3.42;3.00;;;20.10;99.90;;;;;;5035370;28;20029;-88
2022/06/28 08:24:45;;;;;;;6.32;3.08;;;20.10;99.90;;;;;;5035237;28;20030;-87
2022/06/28 08:27:11;;;;;;;5.53;2.85;;;20.00;99.90;;;;;;5035641;28;20029;-86
2022/06/28 08:29:37;;;;;;;4.28;3.13;;;19.90;99.90;;;;;;5036069;28;20933;-87
2022/06/28 08:32:04;;;;;;;4.57;3.10;;;19.80;99.90;;;;;;5036011;28;20488;-86
2022/06/28 08:34:29;;;;;;;4.05;3.00;;;19.70;99.90;;;;;;5033570;28;20060;-87
2022/06/28 08:36:55;;;;;;;4.85;2.90;;;19.90;99.90;;;;;;5034677;28;20065;-86
2022/06/28 08:39:21;;;;;;;3.33;2.65;;;19.90;99.90;;;;;;5034435;28;20021;-87
2022/06/28 08:41:48;;;;;;;9.93;2.90;;;19.80;99.90;;;;;;5033369;28;20116;-88
2022/06/28 08:44:15;;;;;;;5.95;2.65;;;20.00;99.90;;;;;;5033381;28;20021;-87
2022/06/28 08:46:42;;;;;;;4.93;2.72;;;20.20;99.90;;;;;;5033396;28;20121;-87
2022/06/28 08:49:18;;;;;;;5.00;2.92;;;20.50;99.90;;;;;;5034521;28;20108;-87
2022/06/28 08:51:44;;;;;;;6.53;2.70;;;20.70;99.90;;;;;;5033340;28;20021;-87
2022/06/28 08:54:12;;;;;;;6.63;2.53;;;20.90;99.90;;;;;;5033056;28;20104;-87
2022/06/28 08:56:39;;;;;;;5.65;2.63;;;21.00;99.90;;;;;;5033078;28;20392;-87
2022/06/28 08:59:06;;;;;;;2.53;2.22;;;21.20;99.90;;;;;;5032654;28;20025;-88
2022/06/28 09:01:32;;;;;;;2.70;2.25;;;21.30;99.90;;;;;;5034253;28;20021;-88
2022/06/28 09:04:01;;;;;;;2.53;2.15;;;21.40;99.90;;;;;;5032864;28;20485;-88
2022/06/28 09:06:26;;;;;;;3.72;2.30;;;21.50;99.90;;;;;;5033898;28;20461;-88
2022/06/28 09:08:52;;;;;;;3.25;2.50;;;21.50;99.90;;;;;;5032725;28;20032;-87
2022/06/28 09:11:18;;;;;;;5.30;2.45;;;21.60;99.90;;;;;;5032652;28;20108;-88
2022/06/28 09:13:44;;;;;;;2.78;2.10;;;21.60;99.90;;;;;;5032630;28;20022;-88
2022/06/28 09:16:11;;;;;;;3.05;2.25;;;21.70;99.90;;;;;;5032670;28;20048;-88
2022/06/28 09:18:36;;;;;;;2.80;2.33;;;21.70;99.90;;;;;;5032583;28;20075;-87
2022/06/28 09:21:07;;;;;;;4.10;2.08;;;21.70;99.90;;;;;;5032534;28;20033;-88
2022/06/28 09:23:36;;;;;;;3.60;2.50;;;21.70;99.90;;;;;;5032665;28;20444;-87
2022/06/28 09:26:12;;;;;;;3.25;2.35;;;21.70;99.90;;;;;;5032358;28;20028;-88
2022/06/28 09:28:43;;;;;;;2.75;2.20;;;21.70;99.90;;;;;;5032407;28;20116;-87
2022/06/28 09:31:19;;;;;;;2.42;2.00;;;21.80;99.90;;;;;;5032376;28;20030;-87
2022/06/28 09:33:48;;;;;;;3.40;2.40;;;21.80;99.90;;;;;;5032522;28;20018;-87
2022/06/28 09:36:15;;;;;;;3.75;2.70;;;21.80;99.90;;;;;;5032322;28;20046;-87
2022/06/28 09:38:42;;;;;;;2.90;2.20;;;21.80;99.90;;;;;;5033713;28;20033;-87
2022/06/28 09:41:28;;;;;;;3.40;2.42;;;21.90;99.90;;;;;;5032340;28;20026;-87
2022/06/28 09:43:56;;;;;;;2.58;2.22;;;21.90;99.90;;;;;;5032456;28;20033;-87
2022/06/28 09:46:26;;;;;;;4.10;2.40;;;21.90;99.90;;;;;;5033530;28;20096;-86
2022/06/28 09:48:56;;;;;;;2.65;2.45;;;21.90;99.90;;;;;;5032223;28;20480;-87
2022/06/28 09:51:23;;;;;;;3.95;2.45;;;22.00;99.90;;;;;;5032288;28;20021;-87
2022/06/28 09:53:55;;;;;;;2.65;2.42;;;22.00;99.90;;;;;;5032183;28;20112;-87
2022/06/28 09:56:23;;;;;;;2.67;2.47;;;22.00;99.90;;;;;;5032332;28;20523;-87
2022/06/28 09:58:50;;;;;;;2.50;2.30;;;22.10;99.90;;;;;;5032141;28;20022;-87
2022/06/28 10:01:16;;;;;;;6.40;3.05;;;22.10;99.90;;;;;;5032115;28;20029;-87
2022/06/28 10:03:43;;;;;;;3.10;2.60;;;22.10;99.90;;;;;;5031909;28;20033;-87
2022/06/28 10:06:08;;;;;;;3.13;2.35;;;22.10;99.90;;;;;;5031990;28;20087;-87
2022/06/28 10:08:35;;;;;;;6.13;3.05;;;22.10;99.90;;;;;;5032642;28;20018;-87
2022/06/28 10:11:02;;;;;;;6.10;2.70;;;22.20;99.90;;;;;;5034893;28;20029;-87
2022/06/28 10:16:46;;;;;;;5.20;2.78;;;22.20;99.90;;;;;;5037832;28;20040;-87
2022/06/28 10:19:21;;;;;;;5.05;2.90;;;22.30;99.90;;;;;;5036122;28;20082;-86
2022/06/28 10:22:10;;;;;;;4.50;2.97;;;22.30;99.90;;;;;;5036121;28;20546;-87
2022/06/28 10:24:52;;;;;;;5.15;3.13;;;22.30;99.90;;;;;;5035854;28;20116;-87
2022/06/28 10:27:18;;;;;;;2.78;2.50;;;22.40;99.90;;;;;;5035803;28;20029;-87
2022/06/28 10:30:00;;;;;;;3.80;3.20;;;22.40;99.90;;;;;;5035902;28;20022;-88
2022/06/28 10:32:47;;;;;;;4.22;3.17;;;22.40;99.90;;;;;;5036227;28;20074;-88
2022/06/28 10:35:32;;;;;;;3.00;2.70;;;22.40;99.90;;;;;;5037021;28;20053;-88
2022/06/28 10:38:10;;;;;;;3.17;2.45;;;22.40;99.90;;;;;;5035518;28;20564;-87
2022/06/28 10:40:45;;;;;;;4.30;2.55;;;22.40;99.90;;;;;;5035615;28;20481;-88
2022/06/28 10:43:11;;;;;;;4.13;2.38;;;22.40;99.90;;;;;;5035492;28;20053;-87
2022/06/28 10:46:09;;;;;;;4.72;2.72;;;22.40;99.90;;;;;;5035559;28;20029;-88
2022/06/28 10:48:50;;;;;;;3.83;2.90;;;22.40;99.90;;;;;;5036691;28;20076;-89
2022/06/28 10:51:17;;;;;;;3.75;2.72;;;22.40;99.90;;;;;;5035528;28;20164;-88
2022/06/28 10:53:55;;;;;;;3.58;2.70;;;22.50;99.90;;;;;;5035222;28;20564;-88
2022/06/28 10:56:21;;;;;;;3.47;2.58;;;22.40;99.90;;;;;;5035201;28;20021;-88
2022/06/28 10:58:59;;;;;;;2.78;2.53;;;22.40;99.90;;;;;;5035465;28;20038;-88
2022/06/28 11:01:40;;;;;;;3.60;2.50;;;22.40;99.90;;;;;;5035255;28;20385;-87
2022/06/28 11:04:22;;;;;;;4.63;2.55;;;22.40;99.90;;;;;;5035191;28;20017;-87
2022/06/28 11:06:54;;;;;;;2.80;2.60;;;22.40;99.90;;;;;;5036308;28;20416;-88
2022/06/28 11:09:38;;;;;;;4.13;2.53;;;22.40;99.90;;;;;;5035348;28;20025;-88
2022/06/28 11:12:10;;;;;;;2.97;2.53;;;22.40;99.90;;;;;;5035082;28;20099;-87
2022/06/28 11:14:48;;;;;;;3.33;2.60;;;22.50;99.90;;;;;;5035128;28;20031;-89
2022/06/28 11:17:26;;;;;;;3.40;2.70;;;22.50;99.90;;;;;;5035040;28;20033;-89
2022/06/28 11:19:55;;;;;;;2.33;2.13;;;22.50;99.90;;;;;;5035059;28;20022;-89
2022/06/28 11:22:37;;;;;;;2.30;2.10;;;22.60;99.90;;;;;;5034881;28;20033;-89
2022/06/28 11:25:05;;;;;;;3.03;2.72;;;22.60;99.90;;;;;;5034960;28;20401;-88
2022/06/28 11:27:32;;;;;;;2.88;2.40;;;22.60;99.90;;;;;;5034879;28;20022;-88
2022/06/28 11:30:02;;;;;;;3.20;2.90;;;22.60;99.90;;;;;;5034687;28;20025;-89
2022/06/28 11:32:33;;;;;;;2.55;2.25;;;22.60;99.90;;;;;;5034827;28;20030;-88
2022/06/28 11:35:10;;;;;;;2.60;2.40;;;22.60;99.90;;;;;;5034456;28;20080;-88
2022/06/28 11:37:54;;;;;;;4.47;2.67;;;22.60;99.90;;;;;;5035836;28;20022;-88
2022/06/28 11:40:39;;;;;;;3.17;2.80;;;22.60;99.90;;;;;;5034743;28;20030;-88
2022/06/28 11:43:05;;;;;;;;;;;22.60;99.90;;;;;;5035142;28;20438;-88
2022/06/28 11:45:33;;;;;;;3.13;2.65;;;22.60;99.90;;;;;;5035724;28;20364;-88
2022/06/28 11:48:09;;;;;;;3.63;2.40;;;22.60;99.90;;;;;;5034490;28;20483;-88
2022/06/28 11:50:47;;;;;;;3.50;2.55;;;22.60;99.90;;;;;;5034491;28;20080;-88
2022/06/28 11:53:15;;;;;;;3.78;2.30;;;22.60;99.90;;;;;;5035459;28;20022;-88
2022/06/28 11:55:41;;;;;;;5.07;2.10;;;22.60;99.90;;;;;;5035831;28;20029;-89
2022/06/28 11:58:24;;;;;;;2.85;2.10;;;22.60;99.90;;;;;;5034272;28;20022;-88
2022/06/28 12:01:08;;;;;;;2.30;2.03;;;22.70;99.90;;;;;;5034270;28;20032;-89
2022/06/28 12:03:42;;;;;;;2.78;2.45;;;22.60;99.90;;;;;;5034172;28;20031;-88
2022/06/28 12:06:20;;;;;;;2.50;2.30;;;22.60;99.90;;;;;;5034022;28;20034;-88
2022/06/28 12:08:51;;;;;;;2.63;2.42;;;22.60;99.90;;;;;;5034020;28;20048;-88
2022/06/28 12:11:29;;;;;;;5.15;2.40;;;22.50;99.90;;;;;;5033956;28;20505;-88
2022/06/28 12:14:02;;;;;;;3.20;2.72;;;22.50;99.90;;;;;;5034686;28;20030;-88
2022/06/28 12:16:29;;;;;;;3.20;2.60;;;22.40;99.90;;;;;;5033872;28;20508;-88
2022/06/28 12:18:56;;;;;;;4.68;2.13;;;22.40;99.90;;;;;;5033874;28;20124;-89
2022/06/28 12:21:22;;;;;;;2.97;2.55;;;22.40;99.90;;;;;;5033765;28;20440;-88
2022/06/28 12:23:52;;;;;;;4.53;2.30;;;22.40;99.90;;;;;;5033741;28;20120;-88
2022/06/28 12:26:18;;;;;;;3.92;2.28;;;22.40;99.90;;;;;;5033577;28;20065;-88
2022/06/28 12:28:44;;;;;;;2.33;2.13;;;22.40;99.90;;;;;;5033591;28;20048;-88
2022/06/28 12:31:10;;;;;;;2.45;2.00;;;22.40;99.90;;;;;;5033688;28;20021;-88
2022/06/28 12:33:36;;;;;;;2.78;2.13;;;22.40;99.90;;;;;;5033076;28;20121;-88
2022/06/28 12:36:02;;;;;;;2.67;2.47;;;22.40;99.90;;;;;;5033270;28;20081;-88
2022/06/28 12:38:28;;;;;;;3.67;2.50;;;22.40;99.90;;;;;;5033443;28;20029;-89
2022/06/28 12:40:53;;;;;;;3.40;2.30;;;22.40;99.90;;;;;;5033674;28;20032;-89
2022/06/28 12:43:19;;;;;;;2.83;2.50;;;22.40;99.90;;;;;;5033166;28;20033;-88
2022/06/28 12:45:45;;;;;;;3.75;1.90;;;22.30;99.90;;;;;;5033119;28;20504;-88
2022/06/28 12:48:10;;;;;;;2.35;2.15;;;22.30;99.90;;;;;;5033201;28;20029;-88
2022/06/28 12:50:37;;;;;;;3.70;2.13;;;22.30;99.90;;;;;;5033293;28;20042;-88
2022/06/28 12:53:03;;;;;;;4.28;2.30;;;22.30;99.90;;;;;;5034566;28;20022;-89
2022/06/28 12:55:28;;;;;;;2.97;2.20;;;22.20;99.90;;;;;;5033280;28;20025;-88
2022/06/28 12:57:54;;;;;;;4.93;2.40;;;22.20;99.90;;;;;;5034295;28;20026;-88
2022/06/28 13:00:20;;;;;;;3.75;2.42;;;22.20;99.90;;;;;;5032954;28;20033;-88
2022/06/28 13:02:46;;;;;;;4.25;2.00;;;22.20;99.90;;;;;;5032980;28;20112;-88
2022/06/28 13:05:11;;;;;;;2.75;2.45;;;22.20;99.90;;;;;;5032747;28;20030;-89